createdAt,value
2022-07-29T00:00:46.770Z,11.48
2022-07-29T00:03:14.769Z,10.05
2022-07-29T00:05:43.257Z,11.73
2022-07-29T00:08:12.752Z,12.25
2022-07-29T00:10:41.908Z,12.25
2022-07-29T00:13:09.697Z,13.38
2022-07-29T00:15:37.623Z,13.80
2022-07-29T00:18:05.902Z,14.73
2022-07-29T00:20:33.963Z,10.85
2022-07-29T00:23:01.848Z,14.23
2022-07-29T00:25:29.564Z,13.38
2022-07-29T00:27:59.852Z,10.40
2022-07-29T00:30:27.600Z,12.55
2022-07-29T00:32:55.539Z,10.38
2022-07-29T00:35:40.765Z,13.57
2022-07-29T00:38:08.792Z,8.52
2022-07-29T00:40:36.514Z,10.93
2022-07-29T00:43:05.606Z,14.32
2022-07-29T00:45:33.440Z,12.05
2022-07-29T00:48:01.194Z,9.27
2022-07-29T00:50:29.283Z,6.93
2022-07-29T00:52:57.032Z,9.27
2022-07-29T00:55:24.834Z,11.73
2022-07-29T00:57:52.725Z,12.50
2022-07-29T01:00:23.893Z,11.88
2022-07-29T01:02:52.300Z,11.02
2022-07-29T01:05:21.231Z,9.70
2022-07-29T01:07:51.515Z,8.60
2022-07-29T01:10:20.697Z,12.50
2022-07-29T01:12:50.924Z,11.25
2022-07-29T01:15:18.775Z,12.13
2022-07-29T01:17:53.766Z,15.68
2022-07-29T01:20:31.718Z,12.40
2022-07-29T01:23:11.117Z,9.35
2022-07-29T01:26:23.037Z,4.88
2022-07-29T01:29:07.742Z,8.05
2022-07-29T01:31:43.838Z,9.25
2022-07-29T01:34:32.039Z,8.75
2022-07-29T01:37:10.803Z,12.27
2022-07-29T01:39:39.413Z,13.93
2022-07-29T01:42:15.070Z,8.82
2022-07-29T01:44:52.430Z,10.90
2022-07-29T01:47:23.297Z,12.25
2022-07-29T01:49:53.365Z,10.45
2022-07-29T01:52:23.947Z,9.88
2022-07-29T01:54:56.067Z,10.15
2022-07-29T01:57:29.245Z,9.35
2022-07-29T01:59:59.414Z,8.82
2022-07-29T02:02:28.339Z,8.13
2022-07-29T02:04:56.717Z,9.25
2022-07-29T02:07:25.551Z,5.13
2022-07-29T02:09:54.023Z,9.00
2022-07-29T02:12:22.330Z,6.32
2022-07-29T02:14:52.819Z,9.88
2022-07-29T02:17:24.098Z,10.77
2022-07-29T02:19:52.317Z,6.70
2022-07-29T02:22:21.756Z,10.55
2022-07-29T02:24:49.718Z,9.13
2022-07-29T02:27:18.293Z,10.55
2022-07-29T02:29:47.773Z,10.25
2022-07-29T02:32:15.984Z,7.25
2022-07-29T02:34:45.968Z,9.93
2022-07-29T02:37:14.113Z,9.45
2022-07-29T02:39:44.641Z,8.85
2022-07-29T02:42:15.493Z,8.68
2022-07-29T02:44:43.670Z,7.50
2022-07-29T02:47:17.158Z,8.48
2022-07-29T02:49:53.949Z,8.27
2022-07-29T02:52:25.022Z,8.02
2022-07-29T02:54:57.123Z,8.52
2022-07-29T02:57:31.173Z,8.70
2022-07-29T03:00:01.272Z,7.13
2022-07-29T03:02:29.629Z,7.22
2022-07-29T03:05:02.105Z,8.05
2022-07-29T03:07:30.493Z,7.32
2022-07-29T03:09:58.853Z,7.38
2022-07-29T03:12:28.091Z,8.48
2022-07-29T03:14:56.292Z,7.65
2022-07-29T03:17:24.198Z,6.80
2022-07-29T03:19:52.341Z,7.50
2022-07-29T03:22:21.587Z,7.88
2022-07-29T03:24:49.737Z,7.72
2022-07-29T03:27:17.617Z,7.57
2022-07-29T03:29:50.058Z,8.40
2022-07-29T03:32:23.922Z,7.30
2022-07-29T03:34:53.520Z,7.22
2022-07-29T03:37:22.733Z,6.60
2022-07-29T03:39:51.928Z,7.97
2022-07-29T03:42:21.974Z,7.13
2022-07-29T03:44:50.206Z,7.82
2022-07-29T03:47:19.893Z,6.75
2022-07-29T03:49:50.790Z,7.05
2022-07-29T03:52:18.659Z,7.00
2022-07-29T03:54:47.819Z,7.75
2022-07-29T03:57:16.663Z,7.70
2022-07-29T03:59:44.836Z,7.65
2022-07-29T04:02:14.804Z,7.15
2022-07-29T04:04:44.454Z,7.03
2022-07-29T04:07:13.749Z,7.10
2022-07-29T04:09:42.260Z,6.35
2022-07-29T04:12:12.398Z,6.35
2022-07-29T04:14:40.300Z,6.32
2022-07-29T04:17:08.749Z,6.25
2022-07-29T04:19:36.517Z,6.18
2022-07-29T04:22:04.292Z,5.97
2022-07-29T04:24:32.089Z,5.82
2022-07-29T04:26:59.817Z,5.00
2022-07-29T04:29:29.024Z,5.68
2022-07-29T04:31:56.736Z,5.30
2022-07-29T04:34:28.237Z,6.07
2022-07-29T04:36:56.465Z,5.25
2022-07-29T04:39:24.248Z,4.88
2022-07-29T04:41:52.519Z,5.65
2022-07-29T04:44:28.747Z,4.90
2022-07-29T04:46:58.859Z,5.00
2022-07-29T04:49:27.124Z,4.63
2022-07-29T04:51:55.077Z,4.88
2022-07-29T04:54:22.918Z,4.50
2022-07-29T04:56:50.645Z,5.93
2022-07-29T04:59:18.440Z,4.82
2022-07-29T05:01:46.366Z,6.07
2022-07-29T05:04:15.769Z,5.43
2022-07-29T05:06:43.798Z,5.10
2022-07-29T05:09:11.661Z,4.68
2022-07-29T05:11:39.416Z,4.63
2022-07-29T05:14:07.264Z,4.97
2022-07-29T05:16:35.457Z,4.85
2022-07-29T05:19:03.163Z,5.15
2022-07-29T05:21:32.233Z,5.05
2022-07-29T05:23:59.943Z,4.82
2022-07-29T05:26:27.873Z,5.00
2022-07-29T05:28:55.863Z,5.78
2022-07-29T05:31:23.630Z,3.80
2022-07-29T05:33:51.503Z,5.35
2022-07-29T05:36:19.300Z,5.68
2022-07-29T05:38:48.397Z,4.72
2022-07-29T05:41:16.222Z,5.38
2022-07-29T05:43:43.953Z,4.82
2022-07-29T05:46:12.036Z,4.72
2022-07-29T05:48:39.988Z,4.70
2022-07-29T05:51:07.860Z,5.18
2022-07-29T05:53:35.619Z,4.97
2022-07-29T05:56:06.846Z,5.10
2022-07-29T05:58:34.738Z,4.82
2022-07-29T06:01:02.581Z,4.53
2022-07-29T06:03:31.274Z,5.40
2022-07-29T06:05:59.644Z,4.80
2022-07-29T06:08:27.374Z,4.68
2022-07-29T06:10:55.212Z,4.05
2022-07-29T06:13:24.311Z,5.28
2022-07-29T06:15:52.163Z,4.93
2022-07-29T06:18:21.637Z,3.70
2022-07-29T06:20:49.371Z,3.85
2022-07-29T06:23:17.113Z,3.40
2022-07-29T06:25:44.829Z,4.05
2022-07-29T06:28:12.599Z,3.47
2022-07-29T06:30:41.990Z,3.25
2022-07-29T06:33:09.870Z,4.00
2022-07-29T06:35:41.923Z,3.97
2022-07-29T06:38:30.122Z,4.32
2022-07-29T06:41:04.648Z,3.72
2022-07-29T06:43:34.890Z,3.30
2022-07-29T06:46:05.705Z,3.80
2022-07-29T06:48:34.039Z,5.45
2022-07-29T06:51:02.607Z,3.47
2022-07-29T06:53:30.841Z,3.63
2022-07-29T06:55:59.127Z,3.72
2022-07-29T06:58:27.238Z,3.35
2022-07-29T07:00:58.069Z,3.40
2022-07-29T07:03:27.366Z,3.95
2022-07-29T07:05:56.079Z,4.05
2022-07-29T07:08:24.603Z,3.70
2022-07-29T07:10:52.605Z,3.50
2022-07-29T07:13:20.586Z,3.33
2022-07-29T07:15:49.397Z,4.00
2022-07-29T07:18:17.811Z,3.42
2022-07-29T07:20:47.396Z,3.08
2022-07-29T07:23:15.620Z,3.25
2022-07-29T07:28:04.841Z,3.28
2022-07-29T07:30:33.143Z,4.00
2022-07-29T07:33:01.898Z,4.25
2022-07-29T07:35:29.673Z,3.70
2022-07-29T07:37:57.705Z,3.80
2022-07-29T07:40:25.853Z,3.67
2022-07-29T07:42:53.654Z,4.30
2022-07-29T07:45:22.762Z,3.88
2022-07-29T07:47:50.623Z,4.05
2022-07-29T07:50:19.558Z,4.07
2022-07-29T07:52:48.821Z,3.70
2022-07-29T07:55:16.713Z,5.30
2022-07-29T07:57:44.992Z,4.20
2022-07-29T08:00:14.222Z,3.47
2022-07-29T08:02:44.316Z,3.65
2022-07-29T08:05:13.105Z,3.22
2022-07-29T08:07:41.077Z,3.55
2022-07-29T08:10:09.882Z,3.47
2022-07-29T08:12:37.939Z,3.15
2022-07-29T08:15:08.538Z,4.15
2022-07-29T08:17:36.482Z,3.25
2022-07-29T08:20:06.740Z,4.13
2022-07-29T08:22:34.589Z,3.67
2022-07-29T08:25:02.300Z,4.93
2022-07-29T08:27:43.467Z,5.00
2022-07-29T08:30:12.473Z,3.50
2022-07-29T08:32:56.311Z,4.05
2022-07-29T08:35:26.470Z,4.00
2022-07-29T08:37:54.725Z,3.88
2022-07-29T08:40:30.737Z,3.95
2022-07-29T08:43:00.578Z,3.63
2022-07-29T08:45:30.207Z,4.47
2022-07-29T08:47:58.332Z,3.88
2022-07-29T08:50:27.474Z,3.63
2022-07-29T08:52:59.754Z,3.60
2022-07-29T08:55:28.293Z,3.63
2022-07-29T08:57:57.373Z,4.15
2022-07-29T09:00:26.024Z,4.07
2022-07-29T09:02:59.651Z,3.35
2022-07-29T09:05:29.769Z,3.83
2022-07-29T09:07:57.652Z,4.13
2022-07-29T09:10:25.445Z,3.88
2022-07-29T09:12:53.465Z,3.88
2022-07-29T09:15:21.376Z,4.10
2022-07-29T09:17:51.538Z,3.58
2022-07-29T09:20:23.238Z,4.90
2022-07-29T09:22:54.049Z,3.80
2022-07-29T09:25:36.918Z,3.92
2022-07-29T09:28:08.768Z,4.43
2022-07-29T09:30:36.878Z,4.13
2022-07-29T09:33:05.586Z,3.90
2022-07-29T09:35:33.521Z,3.95
2022-07-29T09:38:12.223Z,4.07
2022-07-29T09:40:40.121Z,4.18
2022-07-29T09:43:14.676Z,5.90
2022-07-29T09:45:42.791Z,4.35
2022-07-29T09:48:18.694Z,4.35
2022-07-29T09:50:47.912Z,4.25
2022-07-29T09:53:32.099Z,5.15
2022-07-29T09:56:00.154Z,4.47
2022-07-29T09:58:28.011Z,5.07
2022-07-29T10:00:56.932Z,4.43
2022-07-29T10:03:25.203Z,4.93
2022-07-29T10:06:08.574Z,5.07
2022-07-29T10:08:38.217Z,4.90
2022-07-29T10:11:11.893Z,4.80
2022-07-29T10:13:40.271Z,4.63
2022-07-29T10:16:09.200Z,4.50
2022-07-29T10:18:37.299Z,3.85
2022-07-29T10:21:05.414Z,5.35
2022-07-29T10:23:46.437Z,5.57
2022-07-29T10:26:17.821Z,8.60
2022-07-29T10:28:46.471Z,5.75
2022-07-29T10:31:20.907Z,6.35
2022-07-29T10:33:55.144Z,7.05
2022-07-29T10:36:41.019Z,8.20
2022-07-29T10:39:22.436Z,6.82
2022-07-29T10:42:10.489Z,14.10
2022-07-29T10:44:42.302Z,16.17
2022-07-29T10:47:10.245Z,9.85
2022-07-29T10:49:38.048Z,11.77
2022-07-29T10:52:10.342Z,11.18
2022-07-29T10:54:53.521Z,15.52
2022-07-29T10:57:52.713Z,6.50
2022-07-29T11:00:34.159Z,7.82
2022-07-29T11:03:04.565Z,6.03
2022-07-29T11:05:53.947Z,6.53
2022-07-29T11:08:27.866Z,6.07
2022-07-29T11:11:39.515Z,4.53
2022-07-29T11:14:13.220Z,3.92
2022-07-29T11:17:14.073Z,4.47
2022-07-29T11:19:46.796Z,5.65
2022-07-29T11:22:34.093Z,6.63
2022-07-29T11:25:14.958Z,3.92
2022-07-29T11:27:45.784Z,5.50
2022-07-29T11:30:15.200Z,5.00
2022-07-29T11:32:48.435Z,4.18
2022-07-29T11:35:19.535Z,4.28
2022-07-29T11:38:35.779Z,4.47
2022-07-29T11:41:23.851Z,5.43
2022-07-29T11:43:53.233Z,4.72
2022-07-29T11:46:47.952Z,4.88
2022-07-29T11:49:22.010Z,4.57
2022-07-29T11:52:02.395Z,4.93
2022-07-29T11:54:34.032Z,4.68
2022-07-29T11:57:20.922Z,4.97
2022-07-29T11:59:50.827Z,4.85
2022-07-29T12:02:37.304Z,6.35
2022-07-29T12:07:02.572Z,4.82
2022-07-29T12:07:54.411Z,5.03
2022-07-29T12:10:30.400Z,5.18
2022-07-29T12:12:58.588Z,4.82
2022-07-29T12:15:45.573Z,4.72
2022-07-29T12:18:18.404Z,4.60
2022-07-29T12:20:46.936Z,4.85
2022-07-29T12:23:16.202Z,5.25
2022-07-29T12:25:45.313Z,4.35
2022-07-29T12:28:20.616Z,4.32
2022-07-29T12:30:55.545Z,3.97
2022-07-29T12:33:27.411Z,4.43
2022-07-29T12:36:07.286Z,4.22
2022-07-29T12:38:36.788Z,4.22
2022-07-29T12:41:05.129Z,5.50
2022-07-29T12:43:33.785Z,4.15
2022-07-29T12:46:14.207Z,4.70
2022-07-29T12:48:44.974Z,4.55
2022-07-29T12:51:15.387Z,4.57
2022-07-29T12:53:43.325Z,4.68
2022-07-29T12:56:41.657Z,5.05
2022-07-29T12:59:14.102Z,4.75
2022-07-29T13:01:41.869Z,5.07
2022-07-29T13:04:10.969Z,3.90
2022-07-29T13:06:41.190Z,4.65
2022-07-29T13:09:11.574Z,4.93
2022-07-29T13:11:46.554Z,4.60
2022-07-29T13:14:31.956Z,4.65
2022-07-29T13:17:05.564Z,4.53
2022-07-29T13:19:42.228Z,4.47
2022-07-29T13:22:10.391Z,3.97
2022-07-29T13:24:48.591Z,4.15
2022-07-29T13:27:17.088Z,3.83
2022-07-29T13:29:45.362Z,4.72
2022-07-29T13:32:14.052Z,4.15
2022-07-29T13:34:43.125Z,3.80
2022-07-29T13:37:10.912Z,4.75
2022-07-29T13:39:39.168Z,4.60
2022-07-29T13:42:10.949Z,4.50
2022-07-29T13:44:39.055Z,5.07
2022-07-29T13:47:07.931Z,4.38
2022-07-29T13:49:35.838Z,4.90
2022-07-29T13:52:08.421Z,4.60
2022-07-29T13:54:41.977Z,4.70
2022-07-29T13:57:11.467Z,3.95
2022-07-29T13:59:40.019Z,4.38
2022-07-29T14:02:08.142Z,3.88
2022-07-29T14:04:36.111Z,4.07
2022-07-29T14:07:08.841Z,4.32
2022-07-29T14:09:41.546Z,4.70
2022-07-29T14:12:10.388Z,4.70
2022-07-29T14:14:38.257Z,4.35
2022-07-29T14:17:07.247Z,3.67
2022-07-29T14:19:38.565Z,4.38
2022-07-29T14:22:09.366Z,4.00
2022-07-29T14:24:37.997Z,3.97
2022-07-29T14:27:06.233Z,4.15
2022-07-29T14:29:37.414Z,4.47
2022-07-29T14:32:07.294Z,3.80
2022-07-29T14:34:35.162Z,4.40
2022-07-29T14:37:03.730Z,3.75
2022-07-29T14:39:32.969Z,4.25
2022-07-29T14:42:01.301Z,3.95
2022-07-29T14:44:32.051Z,4.00
2022-07-29T14:47:00.300Z,4.32
2022-07-29T14:49:28.032Z,3.97
2022-07-29T14:51:56.434Z,4.03
2022-07-29T14:54:24.390Z,4.13
2022-07-29T14:56:57.659Z,4.60
2022-07-29T14:59:25.576Z,4.80
2022-07-29T15:01:53.439Z,4.30
2022-07-29T15:04:21.716Z,4.82
2022-07-29T15:06:49.533Z,4.38
2022-07-29T15:09:17.327Z,3.67
2022-07-29T15:11:45.081Z,3.75
2022-07-29T15:14:14.323Z,3.83
2022-07-29T15:16:44.038Z,4.32
2022-07-29T15:19:15.090Z,3.97
2022-07-29T15:21:59.295Z,3.47
2022-07-29T15:24:27.722Z,3.58
2022-07-29T15:26:55.587Z,4.20
2022-07-29T15:29:24.787Z,3.40
2022-07-29T15:31:52.634Z,3.47
2022-07-29T15:34:21.468Z,3.63
2022-07-29T15:36:52.418Z,4.18
2022-07-29T15:39:21.071Z,3.75
2022-07-29T15:41:48.909Z,3.70
2022-07-29T15:44:16.759Z,4.07
2022-07-29T15:47:03.520Z,5.53
2022-07-29T15:49:47.583Z,4.00
2022-07-29T15:52:18.397Z,6.32
2022-07-29T15:54:46.673Z,3.80
2022-07-29T15:57:15.114Z,4.10
2022-07-29T15:59:42.889Z,4.13
2022-07-29T16:02:12.149Z,4.03
2022-07-29T16:04:40.214Z,4.45
2022-07-29T16:07:08.429Z,3.65
2022-07-29T16:09:36.209Z,3.80
2022-07-29T16:12:10.541Z,3.40
2022-07-29T16:14:43.729Z,3.50
2022-07-29T16:17:14.366Z,3.47
2022-07-29T16:19:43.199Z,3.55
2022-07-29T16:22:11.660Z,4.57
2022-07-29T16:24:39.786Z,3.55
2022-07-29T16:27:07.764Z,3.63
2022-07-29T16:29:36.926Z,3.88
2022-07-29T16:32:05.650Z,3.97
2022-07-29T16:34:35.045Z,3.40
2022-07-29T16:37:03.543Z,5.05
2022-07-29T16:39:31.564Z,3.88
2022-07-29T16:42:01.441Z,3.85
2022-07-29T16:44:30.237Z,3.83
2022-07-29T16:47:00.121Z,3.92
2022-07-29T16:49:29.088Z,4.65
2022-07-29T16:51:58.489Z,3.90
2022-07-29T16:54:27.405Z,3.00
2022-07-29T16:56:55.657Z,4.40
2022-07-29T16:59:24.437Z,3.78
2022-07-29T17:01:52.222Z,3.30
2022-07-29T17:04:20.053Z,3.25
2022-07-29T17:06:50.771Z,3.17
2022-07-29T17:09:20.968Z,3.75
2022-07-29T17:11:54.914Z,3.20
2022-07-29T17:14:24.760Z,4.68
2022-07-29T17:17:00.696Z,3.40
2022-07-29T17:19:30.429Z,3.50
2022-07-29T17:22:06.440Z,2.75
2022-07-29T17:24:39.014Z,3.38
2022-07-29T17:27:08.103Z,3.28
2022-07-29T17:29:35.921Z,3.25
2022-07-29T17:32:03.884Z,3.17
2022-07-29T17:34:35.603Z,3.10
2022-07-29T17:37:02.449Z,3.10
2022-07-29T17:39:30.317Z,3.10
2022-07-29T17:41:59.579Z,2.88
2022-07-29T17:44:27.322Z,3.15
2022-07-29T17:46:55.132Z,3.17
2022-07-29T17:49:23.241Z,3.40
2022-07-29T17:51:51.121Z,4.40
2022-07-29T17:54:18.872Z,5.50
2022-07-29T17:56:47.589Z,3.03
2022-07-29T17:59:16.736Z,3.63
2022-07-29T18:01:44.549Z,3.35
2022-07-29T18:04:12.332Z,5.30
2022-07-29T18:06:40.910Z,3.40
2022-07-29T18:09:08.659Z,3.70
2022-07-29T18:11:36.432Z,5.68
2022-07-29T18:14:07.031Z,2.95
2022-07-29T18:16:36.243Z,3.55
2022-07-29T18:19:04.024Z,3.67
2022-07-29T18:21:45.698Z,3.00
2022-07-29T18:24:19.583Z,5.20
2022-07-29T18:26:47.421Z,3.00
2022-07-29T18:29:15.168Z,3.35
2022-07-29T18:31:44.405Z,3.38
2022-07-29T18:34:12.170Z,3.28
2022-07-29T18:36:40.233Z,3.20
2022-07-29T18:39:07.936Z,3.08
2022-07-29T18:41:36.673Z,3.95
2022-07-29T18:44:18.785Z,4.25
2022-07-29T18:46:48.249Z,3.53
2022-07-29T18:49:16.446Z,2.70
2022-07-29T18:51:44.317Z,3.13
2022-07-29T18:54:12.526Z,3.22
2022-07-29T18:56:40.383Z,3.20
2022-07-29T18:59:08.192Z,3.40
2022-07-29T19:01:36.812Z,3.53
2022-07-29T19:04:06.123Z,3.17
2022-07-29T19:06:33.850Z,3.08
2022-07-29T19:09:01.605Z,3.42
2022-07-29T19:11:29.445Z,3.30
2022-07-29T19:13:57.321Z,4.07
2022-07-29T19:16:25.257Z,4.20
2022-07-29T19:18:53.126Z,3.40
2022-07-29T19:21:22.541Z,4.45
2022-07-29T19:24:05.964Z,4.15
2022-07-29T19:26:36.398Z,4.43
2022-07-29T19:29:04.639Z,4.20
2022-07-29T19:31:32.523Z,4.13
2022-07-29T19:34:00.358Z,4.45
2022-07-29T19:36:30.586Z,3.85
2022-07-29T19:38:59.901Z,3.88
2022-07-29T19:41:27.792Z,4.10
2022-07-29T19:43:55.637Z,4.10
2022-07-29T19:46:23.654Z,4.40
2022-07-29T19:48:52.907Z,4.75
2022-07-29T19:51:20.717Z,4.00
2022-07-29T19:53:50.407Z,4.20
2022-07-29T19:56:18.282Z,4.82
2022-07-29T19:58:47.243Z,4.68
2022-07-29T20:01:16.626Z,4.03
2022-07-29T20:03:44.775Z,3.70
2022-07-29T20:06:12.614Z,3.88
2022-07-29T20:08:40.594Z,4.45
2022-07-29T20:11:09.757Z,3.90
2022-07-29T20:13:37.656Z,4.40
2022-07-29T20:16:08.098Z,4.00
2022-07-29T20:18:36.262Z,6.63
2022-07-29T20:21:04.978Z,5.30
2022-07-29T20:23:33.434Z,4.65
2022-07-29T20:26:01.486Z,5.10
2022-07-29T20:28:30.961Z,4.95
2022-07-29T20:30:58.910Z,5.93
2022-07-29T20:33:26.670Z,4.38
2022-07-29T20:35:55.342Z,3.53
2022-07-29T20:38:23.337Z,4.93
2022-07-29T20:40:53.220Z,4.18
2022-07-29T20:43:20.981Z,4.47
2022-07-29T20:45:50.172Z,4.72
2022-07-29T20:48:18.006Z,5.07
2022-07-29T20:50:47.426Z,5.10
2022-07-29T20:53:16.551Z,4.55
2022-07-29T20:55:44.588Z,5.72
2022-07-29T20:58:12.421Z,5.57
2022-07-29T21:00:40.244Z,6.03
2022-07-29T21:03:09.484Z,5.45
2022-07-29T21:05:37.825Z,7.78
2022-07-29T21:08:06.061Z,8.13
2022-07-29T21:10:33.848Z,5.43
2022-07-29T21:13:01.621Z,5.78
2022-07-29T21:15:30.213Z,7.43
2022-07-29T21:18:02.061Z,6.55
2022-07-29T21:20:31.312Z,7.45
2022-07-29T21:22:59.367Z,7.22
2022-07-29T21:25:28.425Z,6.60
2022-07-29T21:28:13.638Z,5.80
2022-07-29T21:30:41.372Z,5.50
2022-07-29T21:33:09.380Z,5.53
2022-07-29T21:36:14.947Z,4.90
2022-07-29T21:38:26.464Z,5.22
2022-07-29T21:40:54.315Z,5.35
2022-07-29T21:43:22.847Z,5.88
2022-07-29T21:45:51.243Z,5.65
2022-07-29T21:48:19.918Z,6.30
2022-07-29T21:50:50.399Z,5.22
2022-07-29T21:53:18.683Z,6.00
2022-07-29T21:55:51.447Z,6.03
2022-07-29T21:58:22.741Z,6.32
2022-07-29T22:00:50.808Z,6.30
2022-07-29T22:03:18.684Z,7.10
2022-07-29T22:05:47.017Z,6.03
2022-07-29T22:08:16.024Z,7.63
2022-07-29T22:10:43.861Z,7.47
2022-07-29T22:13:11.639Z,12.32
2022-07-29T22:15:41.996Z,7.95
2022-07-29T22:18:11.883Z,7.63
2022-07-29T22:20:41.050Z,10.65
2022-07-29T22:23:09.432Z,11.00
2022-07-29T22:25:38.577Z,11.43
2022-07-29T22:28:06.640Z,12.57
2022-07-29T22:30:34.668Z,11.75
2022-07-29T22:33:02.466Z,12.68
2022-07-29T22:35:30.248Z,13.88
2022-07-29T22:37:58.013Z,14.27
2022-07-29T22:40:30.660Z,13.30
2022-07-29T22:43:01.823Z,13.48
2022-07-29T22:45:29.651Z,13.23
2022-07-29T22:47:59.178Z,12.55
2022-07-29T22:50:27.652Z,12.43
2022-07-29T22:52:55.431Z,11.25
2022-07-29T22:55:23.373Z,13.85
2022-07-29T22:57:51.345Z,14.02
2022-07-29T23:00:20.481Z,11.98
2022-07-29T23:02:48.267Z,11.80
2022-07-29T23:05:16.591Z,12.82
2022-07-29T23:07:44.456Z,12.88
2022-07-29T23:10:12.209Z,10.98
2022-07-29T23:12:39.961Z,14.80
2022-07-29T23:15:08.419Z,13.73
2022-07-29T23:17:37.532Z,12.85
2022-07-29T23:20:07.914Z,11.90
2022-07-29T23:22:36.609Z,10.80
2022-07-29T23:25:06.113Z,9.30
2022-07-29T23:27:33.859Z,9.32
2022-07-29T23:30:01.556Z,8.98
2022-07-29T23:32:29.339Z,8.20
2022-07-29T23:34:58.451Z,7.22
2022-07-29T23:37:26.984Z,7.47
2022-07-29T23:39:55.144Z,7.22
2022-07-29T23:42:22.942Z,7.07
2022-07-29T23:44:50.648Z,6.82
2022-07-29T23:47:18.489Z,5.50
2022-07-29T23:49:46.449Z,6.57
2022-07-29T23:52:15.562Z,6.05
2022-07-29T23:54:43.465Z,6.30
2022-07-29T23:57:11.280Z,4.95
2022-07-29T23:59:39.065Z,5.80
